sensor_id;sensor_type;location;lat;lon;timestamp;temperature;humidity
21698;DHT22;11010;49.548;11.926;2022-07-22T00:00:58;21.50;99.90
21698;DHT22;11010;49.548;11.926;2022-07-22T00:03:26;21.40;99.90
21698;DHT22;11010;49.548;11.926;2022-07-22T00:05:53;21.40;99.90
21698;DHT22;11010;49.548;11.926;2022-07-22T00:08:20;21.40;99.90
21698;DHT22;11010;49.548;11.926;2022-07-22T00:10:47;21.40;99.90
21698;DHT22;11010;49.548;11.926;2022-07-22T00:13:14;21.30;99.90
21698;DHT22;11010;49.548;11.926;2022-07-22T00:15:42;21.20;99.90
21698;DHT22;11010;49.548;11.926;2022-07-22T00:18:09;21.40;99.90
21698;DHT22;11010;49.548;11.926;2022-07-22T00:20:36;21.40;99.90
21698;DHT22;11010;49.548;11.926;2022-07-22T00:23:04;21.20;99.90
21698;DHT22;11010;49.548;11.926;2022-07-22T00:25:31;21.10;99.90
21698;DHT22;11010;49.548;11.926;2022-07-22T00:27:58;21.10;99.90
21698;DHT22;11010;49.548;11.926;2022-07-22T00:30:27;21.10;99.90
21698;DHT22;11010;49.548;11.926;2022-07-22T00:32:54;21.00;99.90
21698;DHT22;11010;49.548;11.926;2022-07-22T00:35:21;21.00;99.90
21698;DHT22;11010;49.548;11.926;2022-07-22T00:37:48;21.10;99.90
21698;DHT22;11010;49.548;11.926;2022-07-22T00:40:16;21.10;99.90
21698;DHT22;11010;49.548;11.926;2022-07-22T00:42:43;21.10;99.90
21698;DHT22;11010;49.548;11.926;2022-07-22T00:45:10;21.00;99.90
21698;DHT22;11010;49.548;11.926;2022-07-22T00:47:39;21.00;99.90
21698;DHT22;11010;49.548;11.926;2022-07-22T00:50:07;20.90;99.90
21698;DHT22;11010;49.548;11.926;2022-07-22T00:52:35;20.90;99.90
21698;DHT22;11010;49.548;11.926;2022-07-22T00:55:05;20.80;99.90
21698;DHT22;11010;49.548;11.926;2022-07-22T00:57:32;20.80;99.90
21698;DHT22;11010;49.548;11.926;2022-07-22T00:59:59;20.70;99.90
21698;DHT22;11010;49.548;11.926;2022-07-22T01:02:27;20.80;99.90
21698;DHT22;11010;49.548;11.926;2022-07-22T01:04:54;20.80;99.90
21698;DHT22;11010;49.548;11.926;2022-07-22T01:07:22;20.70;99.90
21698;DHT22;11010;49.548;11.926;2022-07-22T01:09:49;20.80;99.90
21698;DHT22;11010;49.548;11.926;2022-07-22T01:12:17;20.60;99.90
21698;DHT22;11010;49.548;11.926;2022-07-22T01:14:44;20.40;99.90
21698;DHT22;11010;49.548;11.926;2022-07-22T01:17:11;20.40;99.90
21698;DHT22;11010;49.548;11.926;2022-07-22T01:19:39;20.40;99.90
21698;DHT22;11010;49.548;11.926;2022-07-22T01:22:07;20.70;99.90
21698;DHT22;11010;49.548;11.926;2022-07-22T01:24:34;20.60;99.90
21698;DHT22;11010;49.548;11.926;2022-07-22T01:27:02;20.60;99.90
21698;DHT22;11010;49.548;11.926;2022-07-22T01:29:29;20.50;99.90
21698;DHT22;11010;49.548;11.926;2022-07-22T01:31:57;20.60;99.90
21698;DHT22;11010;49.548;11.926;2022-07-22T01:34:25;20.60;99.90
21698;DHT22;11010;49.548;11.926;2022-07-22T01:36:52;20.40;99.90
21698;DHT22;11010;49.548;11.926;2022-07-22T01:39:19;20.40;99.90
21698;DHT22;11010;49.548;11.926;2022-07-22T01:41:47;20.40;99.90
21698;DHT22;11010;49.548;11.926;2022-07-22T01:44:14;20.50;99.90
21698;DHT22;11010;49.548;11.926;2022-07-22T01:46:42;20.40;99.90
21698;DHT22;11010;49.548;11.926;2022-07-22T01:49:09;20.40;99.90
21698;DHT22;11010;49.548;11.926;2022-07-22T01:51:38;20.40;99.90
21698;DHT22;11010;49.548;11.926;2022-07-22T01:54:06;20.40;99.90
21698;DHT22;11010;49.548;11.926;2022-07-22T01:56:33;20.20;99.90
21698;DHT22;11010;49.548;11.926;2022-07-22T01:59:00;20.20;99.90
21698;DHT22;11010;49.548;11.926;2022-07-22T02:01:29;20.20;99.90
21698;DHT22;11010;49.548;11.926;2022-07-22T02:03:56;20.30;99.90
21698;DHT22;11010;49.548;11.926;2022-07-22T02:06:24;20.40;99.90
21698;DHT22;11010;49.548;11.926;2022-07-22T02:08:53;20.20;99.90
21698;DHT22;11010;49.548;11.926;2022-07-22T02:11:41;20.20;99.90
21698;DHT22;11010;49.548;11.926;2022-07-22T02:14:10;20.00;99.90
21698;DHT22;11010;49.548;11.926;2022-07-22T02:16:37;20.00;99.90
21698;DHT22;11010;49.548;11.926;2022-07-22T02:19:05;20.00;99.90
21698;DHT22;11010;49.548;11.926;2022-07-22T02:21:32;20.00;99.90
21698;DHT22;11010;49.548;11.926;2022-07-22T02:24:00;20.00;99.90
21698;DHT22;11010;49.548;11.926;2022-07-22T02:26:27;20.10;99.90
21698;DHT22;11010;49.548;11.926;2022-07-22T02:28:54;20.10;99.90
21698;DHT22;11010;49.548;11.926;2022-07-22T02:31:23;20.10;99.90
21698;DHT22;11010;49.548;11.926;2022-07-22T02:33:50;20.00;99.90
21698;DHT22;11010;49.548;11.926;2022-07-22T02:36:17;19.90;99.90
21698;DHT22;11010;49.548;11.926;2022-07-22T02:38:46;19.90;99.90
21698;DHT22;11010;49.548;11.926;2022-07-22T02:41:14;19.80;99.90
21698;DHT22;11010;49.548;11.926;2022-07-22T02:43:48;19.80;99.90
21698;DHT22;11010;49.548;11.926;2022-07-22T02:46:15;19.80;99.90
21698;DHT22;11010;49.548;11.926;2022-07-22T02:48:43;19.70;99.90
21698;DHT22;11010;49.548;11.926;2022-07-22T02:51:13;19.70;99.90
21698;DHT22;11010;49.548;11.926;2022-07-22T02:53:40;19.80;99.90
21698;DHT22;11010;49.548;11.926;2022-07-22T02:56:07;19.70;99.90
21698;DHT22;11010;49.548;11.926;2022-07-22T02:58:35;19.60;99.90
21698;DHT22;11010;49.548;11.926;2022-07-22T03:01:02;19.60;99.90
21698;DHT22;11010;49.548;11.926;2022-07-22T03:03:35;19.50;99.90
21698;DHT22;11010;49.548;11.926;2022-07-22T03:06:03;19.60;99.90
21698;DHT22;11010;49.548;11.926;2022-07-22T03:08:37;19.70;99.90
21698;DHT22;11010;49.548;11.926;2022-07-22T03:11:05;19.60;99.90
21698;DHT22;11010;49.548;11.926;2022-07-22T03:13:32;19.60;99.90
21698;DHT22;11010;49.548;11.926;2022-07-22T03:16:00;19.60;99.90
21698;DHT22;11010;49.548;11.926;2022-07-22T03:18:28;19.60;99.90
21698;DHT22;11010;49.548;11.926;2022-07-22T03:20:56;19.60;99.90
21698;DHT22;11010;49.548;11.926;2022-07-22T03:23:23;19.50;99.90
21698;DHT22;11010;49.548;11.926;2022-07-22T03:25:50;19.50;99.90
21698;DHT22;11010;49.548;11.926;2022-07-22T03:28:18;19.60;99.90
21698;DHT22;11010;49.548;11.926;2022-07-22T03:30:45;19.60;99.90
21698;DHT22;11010;49.548;11.926;2022-07-22T03:33:14;19.60;99.90
21698;DHT22;11010;49.548;11.926;2022-07-22T03:35:41;19.40;99.90
21698;DHT22;11010;49.548;11.926;2022-07-22T03:38:08;19.40;99.90
21698;DHT22;11010;49.548;11.926;2022-07-22T03:40:37;19.50;99.90
21698;DHT22;11010;49.548;11.926;2022-07-22T03:43:05;19.20;99.90
21698;DHT22;11010;49.548;11.926;2022-07-22T03:45:32;19.10;99.90
21698;DHT22;11010;49.548;11.926;2022-07-22T03:48:00;19.20;99.90
21698;DHT22;11010;49.548;11.926;2022-07-22T03:50:33;19.30;99.90
21698;DHT22;11010;49.548;11.926;2022-07-22T03:53:00;19.20;99.90
21698;DHT22;11010;49.548;11.926;2022-07-22T03:55:29;19.50;99.90
21698;DHT22;11010;49.548;11.926;2022-07-22T03:57:56;19.60;99.90
21698;DHT22;11010;49.548;11.926;2022-07-22T04:00:27;19.40;99.90
21698;DHT22;11010;49.548;11.926;2022-07-22T04:02:56;19.20;99.90
21698;DHT22;11010;49.548;11.926;2022-07-22T04:05:46;19.30;99.90
21698;DHT22;11010;49.548;11.926;2022-07-22T04:08:19;19.30;99.90
21698;DHT22;11010;49.548;11.926;2022-07-22T04:10:47;19.20;99.90
21698;DHT22;11010;49.548;11.926;2022-07-22T04:13:14;19.20;99.90
21698;DHT22;11010;49.548;11.926;2022-07-22T04:15:49;19.20;99.90
21698;DHT22;11010;49.548;11.926;2022-07-22T04:18:16;19.10;99.90
21698;DHT22;11010;49.548;11.926;2022-07-22T04:20:45;19.10;99.90
21698;DHT22;11010;49.548;11.926;2022-07-22T04:23:27;19.10;99.90
21698;DHT22;11010;49.548;11.926;2022-07-22T04:26:09;19.10;99.90
21698;DHT22;11010;49.548;11.926;2022-07-22T04:28:36;19.00;99.90
21698;DHT22;11010;49.548;11.926;2022-07-22T04:31:04;19.10;99.90
21698;DHT22;11010;49.548;11.926;2022-07-22T04:33:33;19.10;99.90
21698;DHT22;11010;49.548;11.926;2022-07-22T04:36:00;19.20;99.90
21698;DHT22;11010;49.548;11.926;2022-07-22T04:38:28;19.20;99.90
21698;DHT22;11010;49.548;11.926;2022-07-22T04:41:02;19.30;99.90
21698;DHT22;11010;49.548;11.926;2022-07-22T04:43:29;19.30;99.90
21698;DHT22;11010;49.548;11.926;2022-07-22T04:45:57;19.30;99.90
21698;DHT22;11010;49.548;11.926;2022-07-22T04:48:28;19.40;99.90
21698;DHT22;11010;49.548;11.926;2022-07-22T04:50:59;19.50;99.90
21698;DHT22;11010;49.548;11.926;2022-07-22T04:53:29;19.40;99.90
21698;DHT22;11010;49.548;11.926;2022-07-22T04:56:16;19.50;99.90
21698;DHT22;11010;49.548;11.926;2022-07-22T04:58:45;19.40;99.90
21698;DHT22;11010;49.548;11.926;2022-07-22T05:01:12;19.20;99.90
21698;DHT22;11010;49.548;11.926;2022-07-22T05:03:42;19.30;99.90
21698;DHT22;11010;49.548;11.926;2022-07-22T05:06:09;19.30;99.90
21698;DHT22;11010;49.548;11.926;2022-07-22T05:08:40;19.40;99.90
21698;DHT22;11010;49.548;11.926;2022-07-22T05:11:07;19.40;99.90
21698;DHT22;11010;49.548;11.926;2022-07-22T05:13:35;19.10;99.90
21698;DHT22;11010;49.548;11.926;2022-07-22T05:16:04;19.30;99.90
21698;DHT22;11010;49.548;11.926;2022-07-22T05:18:34;19.40;99.90
21698;DHT22;11010;49.548;11.926;2022-07-22T05:21:03;19.60;99.90
21698;DHT22;11010;49.548;11.926;2022-07-22T05:23:30;19.70;99.90
21698;DHT22;11010;49.548;11.926;2022-07-22T05:25:59;19.70;99.90
21698;DHT22;11010;49.548;11.926;2022-07-22T05:28:26;19.70;99.90
21698;DHT22;11010;49.548;11.926;2022-07-22T05:30:54;19.80;99.90
21698;DHT22;11010;49.548;11.926;2022-07-22T05:33:25;19.80;99.90
21698;DHT22;11010;49.548;11.926;2022-07-22T05:36:02;19.90;99.90
21698;DHT22;11010;49.548;11.926;2022-07-22T05:38:45;19.90;99.90
21698;DHT22;11010;49.548;11.926;2022-07-22T05:41:12;20.00;99.90
21698;DHT22;11010;49.548;11.926;2022-07-22T05:43:39;20.00;99.90
21698;DHT22;11010;49.548;11.926;2022-07-22T05:46:08;20.00;99.90
21698;DHT22;11010;49.548;11.926;2022-07-22T05:48:35;20.00;99.90
21698;DHT22;11010;49.548;11.926;2022-07-22T05:51:02;20.10;99.90
21698;DHT22;11010;49.548;11.926;2022-07-22T05:53:31;20.10;99.90
21698;DHT22;11010;49.548;11.926;2022-07-22T05:55:58;20.10;99.90
21698;DHT22;11010;49.548;11.926;2022-07-22T05:58:34;20.10;99.90
21698;DHT22;11010;49.548;11.926;2022-07-22T06:01:02;20.00;99.90
21698;DHT22;11010;49.548;11.926;2022-07-22T06:03:30;20.00;99.90
21698;DHT22;11010;49.548;11.926;2022-07-22T06:05:58;19.90;99.90
21698;DHT22;11010;49.548;11.926;2022-07-22T06:08:28;20.00;99.90
21698;DHT22;11010;49.548;11.926;2022-07-22T06:10:57;20.10;99.90
21698;DHT22;11010;49.548;11.926;2022-07-22T06:13:25;20.20;99.90
21698;DHT22;11010;49.548;11.926;2022-07-22T06:15:52;20.10;99.90
21698;DHT22;11010;49.548;11.926;2022-07-22T06:18:20;20.20;99.90
21698;DHT22;11010;49.548;11.926;2022-07-22T06:20:47;20.40;99.90
21698;DHT22;11010;49.548;11.926;2022-07-22T06:23:14;20.40;99.90
21698;DHT22;11010;49.548;11.926;2022-07-22T06:25:42;20.30;99.90
21698;DHT22;11010;49.548;11.926;2022-07-22T06:28:32;20.50;99.90
21698;DHT22;11010;49.548;11.926;2022-07-22T06:30:59;20.40;99.90
21698;DHT22;11010;49.548;11.926;2022-07-22T06:33:27;20.50;99.90
21698;DHT22;11010;49.548;11.926;2022-07-22T06:35:56;20.50;99.90
21698;DHT22;11010;49.548;11.926;2022-07-22T06:38:25;20.50;99.90
21698;DHT22;11010;49.548;11.926;2022-07-22T06:41:15;20.60;99.90
21698;DHT22;11010;49.548;11.926;2022-07-22T06:44:05;20.70;99.90
21698;DHT22;11010;49.548;11.926;2022-07-22T06:46:45;20.80;99.90
21698;DHT22;11010;49.548;11.926;2022-07-22T06:49:16;20.70;99.90
21698;DHT22;11010;49.548;11.926;2022-07-22T06:51:44;20.70;99.90
21698;DHT22;11010;49.548;11.926;2022-07-22T06:54:12;20.90;99.90
21698;DHT22;11010;49.548;11.926;2022-07-22T06:56:39;21.00;99.90
21698;DHT22;11010;49.548;11.926;2022-07-22T06:59:10;21.00;99.90
21698;DHT22;11010;49.548;11.926;2022-07-22T07:01:38;21.00;99.90
21698;DHT22;11010;49.548;11.926;2022-07-22T07:04:05;20.90;99.90
21698;DHT22;11010;49.548;11.926;2022-07-22T07:06:33;21.00;99.90
21698;DHT22;11010;49.548;11.926;2022-07-22T07:09:13;21.10;99.90
21698;DHT22;11010;49.548;11.926;2022-07-22T07:11:45;21.10;99.90
21698;DHT22;11010;49.548;11.926;2022-07-22T07:14:30;21.20;99.90
21698;DHT22;11010;49.548;11.926;2022-07-22T07:16:57;21.40;99.90
21698;DHT22;11010;49.548;11.926;2022-07-22T07:19:24;21.40;99.90
21698;DHT22;11010;49.548;11.926;2022-07-22T07:21:51;21.50;99.90
21698;DHT22;11010;49.548;11.926;2022-07-22T07:24:19;21.50;99.90
21698;DHT22;11010;49.548;11.926;2022-07-22T07:26:46;21.60;99.90
21698;DHT22;11010;49.548;11.926;2022-07-22T07:29:14;21.70;99.90
21698;DHT22;11010;49.548;11.926;2022-07-22T07:31:48;21.80;99.90
21698;DHT22;11010;49.548;11.926;2022-07-22T07:34:15;21.90;99.90
21698;DHT22;11010;49.548;11.926;2022-07-22T07:36:42;22.10;99.90
21698;DHT22;11010;49.548;11.926;2022-07-22T07:39:13;22.00;99.90
21698;DHT22;11010;49.548;11.926;2022-07-22T07:41:40;22.20;99.90
21698;DHT22;11010;49.548;11.926;2022-07-22T07:44:09;22.10;99.90
21698;DHT22;11010;49.548;11.926;2022-07-22T07:46:37;22.10;99.90
21698;DHT22;11010;49.548;11.926;2022-07-22T07:49:04;22.30;99.90
21698;DHT22;11010;49.548;11.926;2022-07-22T07:51:32;22.40;99.90
21698;DHT22;11010;49.548;11.926;2022-07-22T07:53:59;22.50;99.90
21698;DHT22;11010;49.548;11.926;2022-07-22T07:56:26;22.70;99.90
21698;DHT22;11010;49.548;11.926;2022-07-22T07:58:54;22.50;99.90
21698;DHT22;11010;49.548;11.926;2022-07-22T08:01:42;22.70;99.90
21698;DHT22;11010;49.548;11.926;2022-07-22T08:04:28;23.10;99.90
21698;DHT22;11010;49.548;11.926;2022-07-22T08:07:07;23.30;99.90
21698;DHT22;11010;49.548;11.926;2022-07-22T08:09:37;23.40;99.90
21698;DHT22;11010;49.548;11.926;2022-07-22T08:12:11;23.30;99.90
21698;DHT22;11010;49.548;11.926;2022-07-22T08:14:58;23.40;99.90
21698;DHT22;11010;49.548;11.926;2022-07-22T08:17:57;23.50;99.90
21698;DHT22;11010;49.548;11.926;2022-07-22T08:20:26;23.60;99.90
21698;DHT22;11010;49.548;11.926;2022-07-22T08:22:54;23.40;99.90
21698;DHT22;11010;49.548;11.926;2022-07-22T08:25:23;23.50;99.90
21698;DHT22;11010;49.548;11.926;2022-07-22T08:27:51;23.30;99.90
21698;DHT22;11010;49.548;11.926;2022-07-22T08:30:19;23.40;99.90
21698;DHT22;11010;49.548;11.926;2022-07-22T08:32:47;23.60;99.90
21698;DHT22;11010;49.548;11.926;2022-07-22T08:35:15;23.60;99.90
21698;DHT22;11010;49.548;11.926;2022-07-22T08:37:43;23.60;99.90
21698;DHT22;11010;49.548;11.926;2022-07-22T08:40:13;23.90;99.90
21698;DHT22;11010;49.548;11.926;2022-07-22T08:42:42;23.90;99.90
21698;DHT22;11010;49.548;11.926;2022-07-22T08:45:10;24.00;99.90
21698;DHT22;11010;49.548;11.926;2022-07-22T08:47:47;24.10;99.90
21698;DHT22;11010;49.548;11.926;2022-07-22T08:50:21;24.20;99.90
21698;DHT22;11010;49.548;11.926;2022-07-22T08:52:54;24.20;99.90
21698;DHT22;11010;49.548;11.926;2022-07-22T08:55:21;24.40;99.90
21698;DHT22;11010;49.548;11.926;2022-07-22T08:57:49;24.60;99.90
21698;DHT22;11010;49.548;11.926;2022-07-22T09:00:21;24.70;99.90
21698;DHT22;11010;49.548;11.926;2022-07-22T09:02:50;24.60;99.90
21698;DHT22;11010;49.548;11.926;2022-07-22T09:05:17;24.90;99.90
21698;DHT22;11010;49.548;11.926;2022-07-22T09:08:06;24.90;99.90
21698;DHT22;11010;49.548;11.926;2022-07-22T09:11:15;25.10;99.90
21698;DHT22;11010;49.548;11.926;2022-07-22T09:14:01;24.90;99.90
21698;DHT22;11010;49.548;11.926;2022-07-22T09:17:06;25.20;99.90
21698;DHT22;11010;49.548;11.926;2022-07-22T09:19:41;25.70;99.90
21698;DHT22;11010;49.548;11.926;2022-07-22T09:22:34;26.00;99.90
21698;DHT22;11010;49.548;11.926;2022-07-22T09:28:25;25.60;99.90
21698;DHT22;11010;49.548;11.926;2022-07-22T09:31:24;25.70;99.90
21698;DHT22;11010;49.548;11.926;2022-07-22T09:34:03;25.90;99.90
21698;DHT22;11010;49.548;11.926;2022-07-22T09:36:31;26.30;99.90
21698;DHT22;11010;49.548;11.926;2022-07-22T09:38:58;26.50;99.90
21698;DHT22;11010;49.548;11.926;2022-07-22T09:41:27;26.80;99.90
21698;DHT22;11010;49.548;11.926;2022-07-22T09:43:55;26.60;99.90
21698;DHT22;11010;49.548;11.926;2022-07-22T09:46:35;26.60;99.90
21698;DHT22;11010;49.548;11.926;2022-07-22T09:49:42;26.60;99.90
21698;DHT22;11010;49.548;11.926;2022-07-22T09:52:38;26.90;99.90
21698;DHT22;11010;49.548;11.926;2022-07-22T09:55:14;27.40;99.90
21698;DHT22;11010;49.548;11.926;2022-07-22T09:57:43;27.20;99.90
21698;DHT22;11010;49.548;11.926;2022-07-22T10:00:12;27.00;99.90
21698;DHT22;11010;49.548;11.926;2022-07-22T10:05:14;27.30;99.90
21698;DHT22;11010;49.548;11.926;2022-07-22T10:07:43;27.30;99.90
21698;DHT22;11010;49.548;11.926;2022-07-22T10:10:16;27.10;99.90
21698;DHT22;11010;49.548;11.926;2022-07-22T10:12:47;27.40;99.90
21698;DHT22;11010;49.548;11.926;2022-07-22T10:15:15;27.80;99.90
21698;DHT22;11010;49.548;11.926;2022-07-22T10:17:46;27.70;99.90
21698;DHT22;11010;49.548;11.926;2022-07-22T10:20:23;27.70;99.90
21698;DHT22;11010;49.548;11.926;2022-07-22T10:22:53;28.00;99.90
21698;DHT22;11010;49.548;11.926;2022-07-22T10:25:30;28.20;99.90
21698;DHT22;11010;49.548;11.926;2022-07-22T10:28:03;28.20;99.90
21698;DHT22;11010;49.548;11.926;2022-07-22T10:30:35;28.40;99.90
21698;DHT22;11010;49.548;11.926;2022-07-22T10:33:07;28.20;99.90
21698;DHT22;11010;49.548;11.926;2022-07-22T10:35:59;28.90;99.90
21698;DHT22;11010;49.548;11.926;2022-07-22T10:38:29;28.90;99.90
21698;DHT22;11010;49.548;11.926;2022-07-22T10:41:02;28.80;99.90
21698;DHT22;11010;49.548;11.926;2022-07-22T10:43:31;28.30;99.90
21698;DHT22;11010;49.548;11.926;2022-07-22T10:46:00;28.50;99.90
21698;DHT22;11010;49.548;11.926;2022-07-22T10:51:20;29.30;99.90
21698;DHT22;11010;49.548;11.926;2022-07-22T10:53:59;29.40;99.90
21698;DHT22;11010;49.548;11.926;2022-07-22T10:56:36;29.80;99.90
21698;DHT22;11010;49.548;11.926;2022-07-22T10:59:14;29.20;99.90
21698;DHT22;11010;49.548;11.926;2022-07-22T11:01:47;29.10;99.90
21698;DHT22;11010;49.548;11.926;2022-07-22T11:04:19;29.80;99.90
21698;DHT22;11010;49.548;11.926;2022-07-22T11:06:53;30.50;99.90
21698;DHT22;11010;49.548;11.926;2022-07-22T11:09:32;30.70;99.90
21698;DHT22;11010;49.548;11.926;2022-07-22T11:11:59;30.20;99.90
21698;DHT22;11010;49.548;11.926;2022-07-22T11:17:00;30.40;99.90
21698;DHT22;11010;49.548;11.926;2022-07-22T11:19:31;29.80;99.90
21698;DHT22;11010;49.548;11.926;2022-07-22T11:22:05;30.00;99.90
21698;DHT22;11010;49.548;11.926;2022-07-22T11:24:35;30.30;99.90
21698;DHT22;11010;49.548;11.926;2022-07-22T11:27:04;30.40;99.90
21698;DHT22;11010;49.548;11.926;2022-07-22T11:29:39;30.60;99.90
21698;DHT22;11010;49.548;11.926;2022-07-22T11:32:11;31.40;99.90
21698;DHT22;11010;49.548;11.926;2022-07-22T11:34:41;31.30;99.90
21698;DHT22;11010;49.548;11.926;2022-07-22T11:37:18;30.90;99.90
21698;DHT22;11010;49.548;11.926;2022-07-22T11:39:46;30.30;99.90
21698;DHT22;11010;49.548;11.926;2022-07-22T11:42:13;30.40;99.90
21698;DHT22;11010;49.548;11.926;2022-07-22T11:44:41;30.60;99.90
21698;DHT22;11010;49.548;11.926;2022-07-22T11:47:09;30.80;99.90
21698;DHT22;11010;49.548;11.926;2022-07-22T11:49:38;30.40;99.90
21698;DHT22;11010;49.548;11.926;2022-07-22T11:52:08;31.20;99.70
21698;DHT22;11010;49.548;11.926;2022-07-22T11:54:40;31.40;99.90
21698;DHT22;11010;49.548;11.926;2022-07-22T11:57:10;31.70;99.30
21698;DHT22;11010;49.548;11.926;2022-07-22T11:59:37;31.00;99.60
21698;DHT22;11010;49.548;11.926;2022-07-22T12:02:05;30.50;99.90
21698;DHT22;11010;49.548;11.926;2022-07-22T12:04:34;30.70;99.90
21698;DHT22;11010;49.548;11.926;2022-07-22T12:07:03;30.70;99.90
21698;DHT22;11010;49.548;11.926;2022-07-22T12:09:34;31.30;99.90
21698;DHT22;11010;49.548;11.926;2022-07-22T12:12:03;31.50;99.70
21698;DHT22;11010;49.548;11.926;2022-07-22T12:14:32;31.90;99.50
21698;DHT22;11010;49.548;11.926;2022-07-22T12:17:08;32.50;99.70
21698;DHT22;11010;49.548;11.926;2022-07-22T12:19:39;32.90;98.00
21698;DHT22;11010;49.548;11.926;2022-07-22T12:22:12;32.70;98.10
21698;DHT22;11010;49.548;11.926;2022-07-22T12:24:56;31.80;98.30
21698;DHT22;11010;49.548;11.926;2022-07-22T12:27:24;31.40;98.10
21698;DHT22;11010;49.548;11.926;2022-07-22T12:29:51;32.10;98.50
21698;DHT22;11010;49.548;11.926;2022-07-22T12:32:26;31.20;98.00
21698;DHT22;11010;49.548;11.926;2022-07-22T12:35:01;31.80;98.10
21698;DHT22;11010;49.548;11.926;2022-07-22T12:37:43;32.00;98.00
21698;DHT22;11010;49.548;11.926;2022-07-22T12:40:18;32.60;97.60
21698;DHT22;11010;49.548;11.926;2022-07-22T12:43:08;33.00;97.20
21698;DHT22;11010;49.548;11.926;2022-07-22T12:45:37;33.10;96.70
21698;DHT22;11010;49.548;11.926;2022-07-22T12:48:07;32.70;96.90
21698;DHT22;11010;49.548;11.926;2022-07-22T12:50:43;32.90;96.20
21698;DHT22;11010;49.548;11.926;2022-07-22T12:53:16;32.40;96.30
21698;DHT22;11010;49.548;11.926;2022-07-22T12:55:49;31.80;97.10
21698;DHT22;11010;49.548;11.926;2022-07-22T12:58:19;32.10;96.90
21698;DHT22;11010;49.548;11.926;2022-07-22T13:00:50;32.80;96.30
21698;DHT22;11010;49.548;11.926;2022-07-22T13:03:18;33.30;96.00
21698;DHT22;11010;49.548;11.926;2022-07-22T13:05:48;33.40;95.60
21698;DHT22;11010;49.548;11.926;2022-07-22T13:08:16;33.40;95.00
21698;DHT22;11010;49.548;11.926;2022-07-22T13:10:43;32.60;94.30
21698;DHT22;11010;49.548;11.926;2022-07-22T13:13:11;32.30;94.90
21698;DHT22;11010;49.548;11.926;2022-07-22T13:15:38;32.50;94.90
21698;DHT22;11010;49.548;11.926;2022-07-22T13:18:06;31.50;95.40
21698;DHT22;11010;49.548;11.926;2022-07-22T13:20:33;32.30;95.10
21698;DHT22;11010;49.548;11.926;2022-07-22T13:23:00;32.80;94.90
21698;DHT22;11010;49.548;11.926;2022-07-22T13:25:28;32.00;94.40
21698;DHT22;11010;49.548;11.926;2022-07-22T13:27:55;32.20;94.80
21698;DHT22;11010;49.548;11.926;2022-07-22T13:30:22;32.40;94.30
21698;DHT22;11010;49.548;11.926;2022-07-22T13:32:50;32.70;94.10
21698;DHT22;11010;49.548;11.926;2022-07-22T13:35:18;33.50;93.70
21698;DHT22;11010;49.548;11.926;2022-07-22T13:37:45;33.60;93.50
21698;DHT22;11010;49.548;11.926;2022-07-22T13:40:13;33.00;93.80
21698;DHT22;11010;49.548;11.926;2022-07-22T13:42:41;32.70;93.30
21698;DHT22;11010;49.548;11.926;2022-07-22T13:45:08;32.60;93.10
21698;DHT22;11010;49.548;11.926;2022-07-22T13:47:40;32.90;93.10
21698;DHT22;11010;49.548;11.926;2022-07-22T13:50:07;32.50;93.50
21698;DHT22;11010;49.548;11.926;2022-07-22T13:52:35;33.00;93.50
21698;DHT22;11010;49.548;11.926;2022-07-22T13:55:02;33.30;92.70
21698;DHT22;11010;49.548;11.926;2022-07-22T13:57:30;33.30;92.90
21698;DHT22;11010;49.548;11.926;2022-07-22T13:59:57;33.60;92.60
21698;DHT22;11010;49.548;11.926;2022-07-22T14:02:24;33.70;92.40
21698;DHT22;11010;49.548;11.926;2022-07-22T14:04:52;33.00;92.40
21698;DHT22;11010;49.548;11.926;2022-07-22T14:07:19;33.30;92.60
21698;DHT22;11010;49.548;11.926;2022-07-22T14:09:46;33.20;92.90
21698;DHT22;11010;49.548;11.926;2022-07-22T14:12:13;33.50;92.20
21698;DHT22;11010;49.548;11.926;2022-07-22T14:14:40;33.70;91.80
21698;DHT22;11010;49.548;11.926;2022-07-22T14:17:08;33.30;91.30
21698;DHT22;11010;49.548;11.926;2022-07-22T14:19:35;33.00;91.80
21698;DHT22;11010;49.548;11.926;2022-07-22T14:22:03;33.10;91.70
21698;DHT22;11010;49.548;11.926;2022-07-22T14:24:31;33.00;91.70
21698;DHT22;11010;49.548;11.926;2022-07-22T14:26:58;33.00;91.20
21698;DHT22;11010;49.548;11.926;2022-07-22T14:29:25;33.30;91.30
21698;DHT22;11010;49.548;11.926;2022-07-22T14:31:53;33.00;90.70
21698;DHT22;11010;49.548;11.926;2022-07-22T14:34:20;33.30;90.90
21698;DHT22;11010;49.548;11.926;2022-07-22T14:36:48;33.60;90.30
21698;DHT22;11010;49.548;11.926;2022-07-22T14:39:15;33.90;90.20
21698;DHT22;11010;49.548;11.926;2022-07-22T14:41:42;33.60;90.10
21698;DHT22;11010;49.548;11.926;2022-07-22T14:44:13;33.70;90.50
21698;DHT22;11010;49.548;11.926;2022-07-22T14:46:41;33.90;90.20
21698;DHT22;11010;49.548;11.926;2022-07-22T14:49:08;33.90;89.60
21698;DHT22;11010;49.548;11.926;2022-07-22T14:51:42;33.20;90.40
21698;DHT22;11010;49.548;11.926;2022-07-22T14:54:09;33.00;89.80
21698;DHT22;11010;49.548;11.926;2022-07-22T14:56:39;33.30;90.20
21698;DHT22;11010;49.548;11.926;2022-07-22T14:59:07;33.50;90.40
21698;DHT22;11010;49.548;11.926;2022-07-22T15:01:34;33.10;90.40
21698;DHT22;11010;49.548;11.926;2022-07-22T15:04:01;32.70;90.40
21698;DHT22;11010;49.548;11.926;2022-07-22T15:06:29;33.00;90.30
21698;DHT22;11010;49.548;11.926;2022-07-22T15:08:56;33.30;90.10
21698;DHT22;11010;49.548;11.926;2022-07-22T15:11:23;33.60;90.50
21698;DHT22;11010;49.548;11.926;2022-07-22T15:13:51;33.90;89.80
21698;DHT22;11010;49.548;11.926;2022-07-22T15:16:18;33.60;90.50
21698;DHT22;11010;49.548;11.926;2022-07-22T15:18:45;33.60;90.00
21698;DHT22;11010;49.548;11.926;2022-07-22T15:21:12;33.20;89.70
21698;DHT22;11010;49.548;11.926;2022-07-22T15:23:40;33.20;89.50
21698;DHT22;11010;49.548;11.926;2022-07-22T15:26:07;32.80;89.60
21698;DHT22;11010;49.548;11.926;2022-07-22T15:28:34;32.80;89.40
21698;DHT22;11010;49.548;11.926;2022-07-22T15:31:04;32.50;90.20
21698;DHT22;11010;49.548;11.926;2022-07-22T15:33:32;32.70;90.00
21698;DHT22;11010;49.548;11.926;2022-07-22T15:36:08;32.80;89.80
21698;DHT22;11010;49.548;11.926;2022-07-22T15:38:37;33.00;89.60
21698;DHT22;11010;49.548;11.926;2022-07-22T15:41:05;33.30;89.40
21698;DHT22;11010;49.548;11.926;2022-07-22T15:43:33;33.30;88.20
21698;DHT22;11010;49.548;11.926;2022-07-22T15:46:00;33.50;90.00